createdAt,value
2023-01-08T00:00:49.992Z,3.397
2023-01-08T00:01:49.777Z,3.373
2023-01-08T00:02:50.453Z,3.392
2023-01-08T00:03:49.875Z,3.370
2023-01-08T00:04:49.909Z,3.354
2023-01-08T00:05:50.395Z,3.360
2023-01-08T00:06:52.455Z,3.360
2023-01-08T00:07:50.007Z,3.421
2023-01-08T00:08:50.579Z,3.416
2023-01-08T00:09:50.099Z,3.424
2023-01-08T00:10:49.657Z,3.389
2023-01-08T00:11:50.211Z,3.352
2023-01-08T00:12:49.747Z,3.362
2023-01-08T00:13:50.269Z,3.349
2023-01-08T00:14:49.736Z,3.378
2023-01-08T00:15:50.322Z,3.306
2023-01-08T00:16:50.124Z,3.293
2023-01-08T00:17:49.747Z,3.296
2023-01-08T00:18:50.400Z,3.370
2023-01-08T00:19:49.958Z,3.354
2023-01-08T00:20:50.471Z,3.296
2023-01-08T00:21:50.025Z,3.373
2023-01-08T00:22:49.599Z,3.370
2023-01-08T00:23:50.149Z,3.306
2023-01-08T00:24:49.703Z,3.248
2023-01-08T00:25:50.277Z,3.296
2023-01-08T00:26:49.774Z,3.274
2023-01-08T00:27:50.330Z,3.277
2023-01-08T00:28:50.021Z,3.261
2023-01-08T00:29:50.458Z,3.285
2023-01-08T00:30:50.104Z,3.250
2023-01-08T00:31:49.917Z,3.207
2023-01-08T00:32:50.446Z,3.191
2023-01-08T00:33:49.951Z,3.205
2023-01-08T00:34:50.488Z,3.191
2023-01-08T00:35:50.025Z,3.194
2023-01-08T00:36:50.625Z,3.250
2023-01-08T00:37:50.199Z,3.221
2023-01-08T00:38:49.762Z,3.221
2023-01-08T00:39:50.243Z,3.199
2023-01-08T00:40:49.824Z,3.205
2023-01-08T00:41:50.312Z,3.191
2023-01-08T00:42:49.815Z,3.162
2023-01-08T00:44:49.851Z,3.151
2023-01-08T00:45:50.455Z,3.162
2023-01-08T00:46:50.258Z,3.199
2023-01-08T00:47:49.839Z,3.165
2023-01-08T00:48:50.393Z,3.170
2023-01-08T00:49:49.891Z,3.151
2023-01-08T00:50:50.478Z,3.127
2023-01-08T00:51:50.025Z,3.149
2023-01-08T00:52:50.098Z,3.122
2023-01-08T00:53:49.715Z,3.098
2023-01-08T00:54:50.243Z,3.101
2023-01-08T00:55:49.865Z,3.098
2023-01-08T00:56:50.470Z,3.154
2023-01-08T00:57:49.978Z,3.098
2023-01-08T00:58:50.730Z,3.109
2023-01-08T00:59:50.234Z,3.061
2023-01-08T01:00:49.805Z,3.061
2023-01-08T01:01:50.731Z,3.031
2023-01-08T01:02:50.044Z,3.034
2023-01-08T01:03:49.632Z,3.077
2023-01-08T01:04:50.335Z,3.061
2023-01-08T01:05:49.982Z,3.098
2023-01-08T01:06:50.523Z,3.087
2023-01-08T01:07:50.212Z,3.079
2023-01-08T01:08:49.762Z,3.133
2023-01-08T01:09:50.284Z,3.130
2023-01-08T01:10:49.891Z,3.165
2023-01-08T01:11:50.387Z,3.133
2023-01-08T01:12:49.914Z,3.133
2023-01-08T01:13:50.418Z,3.162
2023-01-08T01:14:49.915Z,3.191
2023-01-08T01:15:50.436Z,3.178
2023-01-08T01:16:50.007Z,3.218
2023-01-08T01:17:49.605Z,3.215
2023-01-08T01:18:50.130Z,3.183
2023-01-08T01:19:49.637Z,3.157
2023-01-08T01:20:50.186Z,3.178
2023-01-08T01:21:49.822Z,3.250
2023-01-08T01:22:50.331Z,3.221
2023-01-08T01:23:49.898Z,3.215
2023-01-08T01:24:50.386Z,3.194
2023-01-08T01:25:49.883Z,3.109
2023-01-08T01:26:50.366Z,3.141
2023-01-08T01:27:49.864Z,3.122
2023-01-08T01:28:50.377Z,3.165
2023-01-08T01:29:49.883Z,3.162
2023-01-08T01:30:49.747Z,3.239
2023-01-08T01:31:50.382Z,3.213
2023-01-08T01:32:49.935Z,3.207
2023-01-08T01:33:50.481Z,3.210
2023-01-08T01:34:50.051Z,3.250
2023-01-08T01:35:49.994Z,3.221
2023-01-08T01:36:50.469Z,3.207
2023-01-08T01:37:50.000Z,3.189
2023-01-08T01:38:50.572Z,3.183
2023-01-08T01:39:50.340Z,3.157
2023-01-08T01:40:49.887Z,3.242
2023-01-08T01:41:50.390Z,3.186
2023-01-08T01:42:49.864Z,3.189
2023-01-08T01:43:50.385Z,3.157
2023-01-08T01:44:50.055Z,3.194
2023-01-08T01:45:50.645Z,3.194
2023-01-08T01:46:50.303Z,3.109
2023-01-08T01:47:49.813Z,3.127
2023-01-08T01:48:50.320Z,3.111
2023-01-08T01:49:49.926Z,3.061
2023-01-08T01:51:49.993Z,3.047
2023-01-08T01:52:50.562Z,3.031
2023-01-08T01:53:50.125Z,3.007
2023-01-08T01:54:49.690Z,2.935
2023-01-08T01:55:50.303Z,2.932
2023-01-08T01:56:50.039Z,2.956
2023-01-08T01:57:50.576Z,2.954
2023-01-08T01:58:50.278Z,2.970
2023-01-08T01:59:50.055Z,2.970
2023-01-08T02:00:49.726Z,2.938
2023-01-08T02:01:50.630Z,2.988
2023-01-08T02:02:49.928Z,3.013
2023-01-08T02:03:50.551Z,3.109
2023-01-08T02:04:50.180Z,3.130
2023-01-08T02:05:49.765Z,3.146
2023-01-08T02:06:50.327Z,3.119
2023-01-08T02:07:49.823Z,3.175
2023-01-08T02:08:50.392Z,3.186
2023-01-08T02:09:50.003Z,3.194
2023-01-08T02:10:50.532Z,3.239
2023-01-08T02:11:50.113Z,3.213
2023-01-08T02:12:49.639Z,3.229
2023-01-08T02:13:50.165Z,3.237
2023-01-08T02:14:49.779Z,3.223
2023-01-08T02:15:53.436Z,3.285
2023-01-08T02:16:50.167Z,3.336
2023-01-08T02:17:49.966Z,3.338
2023-01-08T02:18:50.468Z,3.370
2023-01-08T02:19:50.047Z,3.397
2023-01-08T02:20:50.510Z,3.413
2023-01-08T02:21:50.007Z,3.416
2023-01-08T02:22:49.693Z,3.466
2023-01-08T02:23:50.321Z,3.445
2023-01-08T02:24:49.803Z,3.445
2023-01-08T02:25:50.300Z,3.413
2023-01-08T02:26:49.826Z,3.461
2023-01-08T02:27:50.394Z,3.400
2023-01-08T02:28:49.956Z,3.405
2023-01-08T02:29:50.481Z,3.386
2023-01-08T02:30:50.108Z,3.362
2023-01-08T02:31:49.878Z,3.352
2023-01-08T02:32:50.452Z,3.282
2023-01-08T02:33:49.958Z,3.274
2023-01-08T02:34:50.513Z,3.325
2023-01-08T02:35:50.023Z,3.328
2023-01-08T02:36:50.592Z,3.266
2023-01-08T02:37:50.248Z,3.269
2023-01-08T02:38:49.841Z,3.226
2023-01-08T02:39:50.491Z,3.178
2023-01-08T02:40:50.115Z,3.178
2023-01-08T02:41:49.666Z,3.186
2023-01-08T02:42:50.193Z,3.130
2023-01-08T02:43:49.875Z,3.125
2023-01-08T02:44:50.538Z,3.109
2023-01-08T02:45:50.187Z,3.066
2023-01-08T02:46:49.931Z,3.071
2023-01-08T02:47:50.566Z,3.074
2023-01-08T02:48:50.100Z,2.994
2023-01-08T02:49:49.842Z,2.980
2023-01-08T02:50:50.342Z,2.956
2023-01-08T02:51:49.950Z,2.972
2023-01-08T02:52:50.463Z,2.924
2023-01-08T02:53:49.982Z,2.932
2023-01-08T02:54:50.490Z,2.935
2023-01-08T02:55:50.093Z,2.922
2023-01-08T02:56:49.733Z,2.882
2023-01-08T02:57:50.271Z,2.895
2023-01-08T02:58:49.868Z,2.890
2023-01-08T02:59:50.482Z,2.906
2023-01-08T03:00:50.087Z,2.911
2023-01-08T03:01:50.413Z,2.908
2023-01-08T03:02:50.710Z,2.874
2023-01-08T03:03:50.385Z,2.863
2023-01-08T03:04:50.179Z,2.911
2023-01-08T03:05:49.825Z,2.906
2023-01-08T03:06:50.341Z,2.906
2023-01-08T03:07:50.067Z,2.994
2023-01-08T03:08:50.526Z,2.972
2023-01-08T03:09:50.435Z,2.964
2023-01-08T03:10:49.915Z,2.978
2023-01-08T03:11:50.523Z,3.021
2023-01-08T03:12:50.146Z,2.978
2023-01-08T03:13:49.838Z,2.991
2023-01-08T03:14:50.482Z,3.015
2023-01-08T03:15:50.082Z,2.980
2023-01-08T03:16:49.852Z,3.005
2023-01-08T03:17:50.477Z,3.007
2023-01-08T03:18:49.979Z,3.061
2023-01-08T03:19:49.811Z,3.034
2023-01-08T03:20:50.462Z,3.023
2023-01-08T03:21:50.102Z,3.074
2023-01-08T03:22:49.695Z,3.082
2023-01-08T03:23:50.173Z,3.029
2023-01-08T03:24:49.735Z,3.082
2023-01-08T03:25:50.295Z,3.109
2023-01-08T03:26:49.905Z,3.119
2023-01-08T03:27:50.459Z,3.197
2023-01-08T03:28:49.947Z,3.159
2023-01-08T03:29:50.541Z,3.183
2023-01-08T03:30:50.247Z,3.149
2023-01-08T03:31:50.235Z,3.170
2023-01-08T03:32:49.963Z,3.165
2023-01-08T03:33:50.609Z,3.264
2023-01-08T03:34:50.207Z,3.239
2023-01-08T03:35:49.899Z,3.312
2023-01-08T03:36:50.376Z,3.288
2023-01-08T03:37:50.086Z,3.312
2023-01-08T03:38:50.546Z,3.237
2023-01-08T03:39:50.180Z,3.264
2023-01-08T03:40:49.807Z,3.237
2023-01-08T03:41:50.315Z,3.341
2023-01-08T03:42:49.906Z,3.328
2023-01-08T03:43:50.515Z,3.333
2023-01-08T03:44:50.150Z,3.413
2023-01-08T03:45:49.926Z,3.370
2023-01-08T03:46:49.762Z,3.322
2023-01-08T03:47:50.357Z,3.352
2023-01-08T03:48:49.889Z,3.330
2023-01-08T03:49:50.477Z,3.408
2023-01-08T03:50:50.035Z,3.410
2023-01-08T03:51:49.616Z,3.373
2023-01-08T03:52:50.174Z,3.341
2023-01-08T03:53:49.707Z,3.328
2023-01-08T03:54:50.276Z,3.320
2023-01-08T03:55:49.771Z,3.333
2023-01-08T03:56:50.319Z,3.373
2023-01-08T03:57:49.833Z,3.312
2023-01-08T03:58:50.392Z,3.333
2023-01-08T03:59:50.491Z,3.386
2023-01-08T04:00:50.079Z,3.322
2023-01-08T04:01:50.070Z,3.330
2023-01-08T04:02:50.427Z,3.322
2023-01-08T04:03:50.024Z,3.365
2023-01-08T04:04:49.772Z,3.392
2023-01-08T04:05:50.298Z,3.440
2023-01-08T04:06:49.917Z,3.445
2023-01-08T04:07:50.529Z,3.512
2023-01-08T04:08:49.992Z,3.432
2023-01-08T04:09:50.554Z,3.461
2023-01-08T04:10:50.157Z,3.474
2023-01-08T04:11:49.701Z,3.501
2023-01-08T04:12:50.206Z,3.474
2023-01-08T04:13:49.736Z,3.525
2023-01-08T04:14:50.338Z,3.507
2023-01-08T04:15:49.971Z,3.515
2023-01-08T04:16:49.956Z,3.555
2023-01-08T04:17:50.591Z,3.531
2023-01-08T04:18:50.166Z,3.525
2023-01-08T04:19:49.730Z,3.461
2023-01-08T04:20:50.282Z,3.424
2023-01-08T04:21:49.839Z,3.421
2023-01-08T04:22:50.340Z,3.429
2023-01-08T04:23:49.908Z,3.386
2023-01-08T04:24:50.520Z,3.360
2023-01-08T04:25:50.042Z,3.328
2023-01-08T04:26:50.655Z,3.349
2023-01-08T04:27:50.164Z,3.346
2023-01-08T04:28:49.856Z,3.341
2023-01-08T04:29:50.436Z,3.365
2023-01-08T04:30:50.001Z,3.373
2023-01-08T04:31:50.153Z,3.352
2023-01-08T04:32:49.695Z,3.330
2023-01-08T04:33:50.262Z,3.333
2023-01-08T04:34:49.896Z,3.341
2023-01-08T04:35:50.442Z,3.290
2023-01-08T04:36:50.050Z,3.314
2023-01-08T04:37:50.526Z,3.258
2023-01-08T04:38:50.543Z,3.253
2023-01-08T04:39:50.019Z,3.226
2023-01-08T04:40:50.643Z,3.194
2023-01-08T04:41:50.174Z,3.181
2023-01-08T04:42:49.751Z,3.226
2023-01-08T04:43:50.254Z,3.226
2023-01-08T04:45:50.442Z,3.253
2023-01-08T04:46:50.477Z,3.253
2023-01-08T04:47:50.067Z,3.218
2023-01-08T04:48:50.622Z,3.202
2023-01-08T04:49:50.154Z,3.146
2023-01-08T04:50:49.715Z,3.186
2023-01-08T04:51:50.362Z,3.133
2023-01-08T04:52:49.915Z,3.154
2023-01-08T04:53:50.511Z,3.173
2023-01-08T04:54:50.087Z,3.197
2023-01-08T04:55:49.599Z,3.183
2023-01-08T04:56:50.216Z,3.186
2023-01-08T04:57:49.763Z,3.183
2023-01-08T04:58:50.291Z,3.199
2023-01-08T05:00:50.484Z,3.215
2023-01-08T05:01:50.704Z,3.218
2023-01-08T05:02:50.260Z,3.183
2023-01-08T05:03:50.472Z,3.215
2023-01-08T05:04:50.121Z,3.274
2023-01-08T05:05:50.017Z,3.210
2023-01-08T05:06:49.690Z,3.178
2023-01-08T05:07:50.190Z,3.175
2023-01-08T05:08:49.858Z,3.197
2023-01-08T05:09:50.396Z,3.237
2023-01-08T05:10:49.942Z,3.250
2023-01-08T05:11:50.582Z,3.266
2023-01-08T05:12:50.129Z,3.234
2023-01-08T05:13:49.673Z,3.221
2023-01-08T05:14:50.226Z,3.207
2023-01-08T05:15:49.889Z,3.237
2023-01-08T05:16:49.846Z,3.256
2023-01-08T05:17:50.347Z,3.242
2023-01-08T05:18:49.924Z,3.274
2023-01-08T05:19:50.527Z,3.264
2023-01-08T05:20:50.119Z,3.264
2023-01-08T05:21:49.732Z,3.304
2023-01-08T05:22:50.223Z,3.264
2023-01-08T05:23:49.695Z,3.338
2023-01-08T05:24:50.281Z,3.370
2023-01-08T05:25:50.053Z,3.370
2023-01-08T05:26:49.674Z,3.397
2023-01-08T05:27:50.190Z,3.384
2023-01-08T05:28:49.727Z,3.389
2023-01-08T05:29:50.244Z,3.424
2023-01-08T05:30:49.891Z,3.405
2023-01-08T05:31:51.299Z,3.394
2023-01-08T05:32:49.839Z,3.416
2023-01-08T05:33:50.382Z,3.365
2023-01-08T05:34:49.858Z,3.368
2023-01-08T05:35:50.483Z,3.424
2023-01-08T05:36:50.056Z,3.378
2023-01-08T05:37:50.534Z,3.338
2023-01-08T05:38:50.066Z,3.360
2023-01-08T05:39:50.661Z,3.322
2023-01-08T05:40:50.238Z,3.349
2023-01-08T05:41:49.811Z,3.362
2023-01-08T05:42:50.478Z,3.322
2023-01-08T05:43:49.987Z,3.301
2023-01-08T05:44:50.442Z,3.312
2023-01-08T05:45:49.942Z,3.322
2023-01-08T05:46:50.612Z,3.317
2023-01-08T05:47:50.249Z,3.357
2023-01-08T05:48:49.747Z,3.384
2023-01-08T05:49:50.252Z,3.392
2023-01-08T05:50:49.767Z,3.357
2023-01-08T05:51:50.239Z,3.378
2023-01-08T05:52:49.811Z,3.330
2023-01-08T05:53:50.339Z,3.328
2023-01-08T05:54:49.860Z,3.336
2023-01-08T05:55:50.389Z,3.354
2023-01-08T05:56:49.951Z,3.362
2023-01-08T05:57:50.565Z,3.306
2023-01-08T05:58:50.063Z,3.296
2023-01-08T05:59:50.587Z,3.296
2023-01-08T06:00:50.341Z,3.301
2023-01-08T06:01:50.137Z,3.320
2023-01-08T06:02:50.007Z,3.296
2023-01-08T06:03:50.094Z,3.274
2023-01-08T06:04:49.851Z,3.248
2023-01-08T06:05:50.379Z,3.253
2023-01-08T06:06:49.872Z,3.248
2023-01-08T06:07:50.386Z,3.239
2023-01-08T06:08:50.058Z,3.266
2023-01-08T06:09:50.590Z,3.226
2023-01-08T06:10:50.219Z,3.256
2023-01-08T06:11:49.721Z,3.239
2023-01-08T06:12:50.291Z,3.239
2023-01-08T06:13:49.854Z,3.269
2023-01-08T06:14:50.359Z,3.245
2023-01-08T06:15:50.107Z,3.210
2023-01-08T06:16:49.856Z,3.207
2023-01-08T06:17:50.379Z,3.237
2023-01-08T06:18:49.900Z,3.189
2023-01-08T06:19:50.409Z,3.173
2023-01-08T06:20:50.016Z,3.210
2023-01-08T06:21:50.508Z,3.239
2023-01-08T06:22:51.415Z,3.205
2023-01-08T06:23:49.953Z,3.226
2023-01-08T06:24:50.431Z,3.221
2023-01-08T06:25:50.021Z,3.248
2023-01-08T06:26:50.541Z,3.269
2023-01-08T06:27:50.037Z,3.261
2023-01-08T06:28:50.554Z,3.288
2023-01-08T06:29:50.053Z,3.296
2023-01-08T06:30:49.675Z,3.272
2023-01-08T06:31:50.470Z,3.314
2023-01-08T06:32:50.019Z,3.314
2023-01-08T06:33:50.585Z,3.333
2023-01-08T06:34:50.259Z,3.336
2023-01-08T06:35:49.824Z,3.322
2023-01-08T06:36:50.330Z,3.304
2023-01-08T06:37:49.981Z,3.322
2023-01-08T06:38:50.582Z,3.360
2023-01-08T06:39:50.530Z,3.360
2023-01-08T06:40:50.112Z,3.354
2023-01-08T06:41:49.641Z,3.400
2023-01-08T06:42:50.188Z,3.413
2023-01-08T06:43:49.770Z,3.429
2023-01-08T06:44:50.351Z,3.461
2023-01-08T06:45:49.867Z,3.477
2023-01-08T06:46:50.674Z,3.547
2023-01-08T06:47:50.372Z,3.560
2023-01-08T06:48:49.935Z,3.539
2023-01-08T06:49:50.500Z,3.552
2023-01-08T06:50:50.267Z,3.549
2023-01-08T06:51:49.848Z,3.539
2023-01-08T06:52:50.370Z,3.613
2023-01-08T06:53:49.897Z,3.589
2023-01-08T06:54:50.386Z,3.640
2023-01-08T06:55:49.993Z,3.637
2023-01-08T06:56:55.466Z,3.645
2023-01-08T06:57:50.059Z,3.701
2023-01-08T06:58:49.684Z,3.675
2023-01-08T06:59:50.135Z,3.691
2023-01-08T07:00:49.767Z,3.664
2023-01-08T07:01:50.618Z,3.704
2023-01-08T07:02:51.025Z,3.696
2023-01-08T07:03:50.213Z,3.728
2023-01-08T07:04:49.748Z,3.717
2023-01-08T07:05:50.320Z,3.728
2023-01-08T07:06:49.949Z,3.755
2023-01-08T07:07:50.592Z,3.720
2023-01-08T07:08:50.280Z,3.709
2023-01-08T07:09:49.871Z,3.717
2023-01-08T07:10:50.443Z,3.704
2023-01-08T07:11:49.955Z,3.768
2023-01-08T07:12:50.418Z,3.731
2023-01-08T07:13:49.967Z,3.701
2023-01-08T07:14:50.470Z,3.736
2023-01-08T07:15:50.221Z,3.723
2023-01-08T07:16:50.351Z,3.742
2023-01-08T07:17:49.864Z,3.766
2023-01-08T07:18:50.451Z,3.728
2023-01-08T07:19:50.177Z,3.728
2023-01-08T07:20:49.770Z,3.739
2023-01-08T07:21:50.280Z,3.725
2023-01-08T07:22:50.056Z,3.728
2023-01-08T07:23:49.633Z,3.734
2023-01-08T07:24:50.281Z,3.750
2023-01-08T07:25:49.846Z,3.701
2023-01-08T07:26:50.436Z,3.696
2023-01-08T07:27:49.963Z,3.736
2023-01-08T07:28:50.603Z,3.747
2023-01-08T07:29:50.327Z,3.776
2023-01-08T07:31:50.674Z,3.774
2023-01-08T07:32:50.339Z,3.784
2023-01-08T07:33:50.168Z,3.790
2023-01-08T07:34:49.738Z,3.787
2023-01-08T07:35:50.338Z,3.774
2023-01-08T07:36:49.945Z,3.755
2023-01-08T07:37:50.558Z,3.720
2023-01-08T07:38:50.227Z,3.771
2023-01-08T07:39:49.804Z,3.803
2023-01-08T07:40:50.436Z,3.771
2023-01-08T07:41:50.058Z,3.798
2023-01-08T07:42:50.611Z,3.779
2023-01-08T07:43:50.206Z,3.744
2023-01-08T07:44:49.825Z,3.744
2023-01-08T07:45:50.436Z,3.766
2023-01-08T07:46:50.273Z,3.739
2023-01-08T07:47:50.018Z,3.766
2023-01-08T07:48:49.639Z,3.720
2023-01-08T07:49:50.305Z,3.731
2023-01-08T07:50:49.931Z,3.717
2023-01-08T07:51:50.522Z,3.742
2023-01-08T07:52:50.082Z,3.677
2023-01-08T07:53:49.694Z,3.640
2023-01-08T07:54:50.258Z,3.701
2023-01-08T07:55:49.903Z,3.752
2023-01-08T07:56:50.520Z,3.717
2023-01-08T07:57:50.076Z,3.758
2023-01-08T07:58:49.675Z,3.750
2023-01-08T07:59:50.284Z,3.728
2023-01-08T08:00:50.130Z,3.803
2023-01-08T08:01:49.981Z,3.728
2023-01-08T08:02:50.133Z,3.790
2023-01-08T08:03:50.086Z,3.787
2023-01-08T08:04:49.713Z,3.835
2023-01-08T08:05:50.365Z,3.862
2023-01-08T08:06:50.027Z,3.856
2023-01-08T08:07:49.881Z,3.862
2023-01-08T08:08:50.495Z,3.928
2023-01-08T08:09:50.121Z,3.955
2023-01-08T08:10:49.810Z,3.942
2023-01-08T08:11:50.542Z,3.955
2023-01-08T08:12:50.166Z,4.025
2023-01-08T08:13:51.355Z,3.971
2023-01-08T08:14:50.467Z,4.033
2023-01-08T08:15:50.089Z,4.014
2023-01-08T08:16:50.175Z,4.054
2023-01-08T08:17:49.803Z,4.121
2023-01-08T08:18:50.387Z,4.145
2023-01-08T08:19:49.931Z,4.123
2023-01-08T08:20:50.579Z,4.203
2023-01-08T08:21:50.165Z,4.155
2023-01-08T08:22:49.798Z,4.169
2023-01-08T08:23:52.213Z,4.209
2023-01-08T08:24:49.807Z,4.236
2023-01-08T08:25:50.395Z,4.268
2023-01-08T08:26:50.027Z,4.305
2023-01-08T08:27:49.738Z,4.289
2023-01-08T08:28:50.289Z,4.350
2023-01-08T08:29:49.870Z,4.281
2023-01-08T08:30:50.614Z,4.326
2023-01-08T08:31:50.665Z,4.356
2023-01-08T08:32:50.335Z,4.334
2023-01-08T08:33:49.958Z,4.404
2023-01-08T08:34:50.558Z,4.401
2023-01-08T08:35:50.192Z,4.452
2023-01-08T08:36:49.798Z,4.471
2023-01-08T08:37:50.347Z,4.516
2023-01-08T08:38:49.960Z,4.519
2023-01-08T08:39:50.530Z,4.561
2023-01-08T08:40:50.138Z,4.599
2023-01-08T08:41:49.716Z,4.609
2023-01-08T08:42:50.279Z,4.649
2023-01-08T08:43:49.834Z,4.657
2023-01-08T08:44:50.374Z,4.663
2023-01-08T08:45:50.006Z,4.636
2023-01-08T08:46:50.687Z,4.700
2023-01-08T08:47:50.334Z,4.695
2023-01-08T08:48:49.921Z,4.730
2023-01-08T08:49:50.394Z,4.730
2023-01-08T08:50:49.990Z,4.716
2023-01-08T08:51:50.611Z,4.746
2023-01-08T08:52:50.274Z,4.778
2023-01-08T08:53:49.939Z,4.772
2023-01-08T08:54:50.555Z,4.807
2023-01-08T08:55:50.146Z,4.810
2023-01-08T08:56:49.764Z,4.812
2023-01-08T08:57:50.341Z,4.863
2023-01-08T08:58:49.985Z,4.924
2023-01-08T08:59:50.615Z,4.973
2023-01-08T09:00:50.267Z,4.967
2023-01-08T09:01:50.212Z,5.005
2023-01-08T09:02:50.348Z,5.034
2023-01-08T09:03:56.431Z,4.999
2023-01-08T09:04:50.022Z,5.074
2023-01-08T09:05:50.587Z,5.058
2023-01-08T09:06:50.194Z,5.101
2023-01-08T09:07:49.765Z,5.063
2023-01-08T09:08:50.367Z,5.119
2023-01-08T09:09:49.934Z,5.146
2023-01-08T09:10:50.529Z,5.170
2023-01-08T09:11:50.108Z,5.167
2023-01-08T09:12:49.679Z,5.232
2023-01-08T09:13:50.247Z,5.285
2023-01-08T09:14:49.806Z,5.261
2023-01-08T09:15:50.506Z,5.328
2023-01-08T09:16:50.482Z,5.330
2023-01-08T09:17:50.112Z,5.349
2023-01-08T09:18:49.728Z,5.378
2023-01-08T09:19:50.298Z,5.421
2023-01-08T09:20:49.874Z,5.448
2023-01-08T09:21:50.527Z,5.453
2023-01-08T09:22:50.105Z,5.547
2023-01-08T09:23:50.644Z,5.587
2023-01-08T09:24:50.306Z,5.635
2023-01-08T09:25:49.899Z,5.688
2023-01-08T09:26:50.479Z,5.688
2023-01-08T09:27:49.667Z,5.838
2023-01-08T09:28:50.311Z,5.872
2023-01-08T09:29:49.874Z,5.883
2023-01-08T09:30:50.581Z,5.896
2023-01-08T09:31:50.370Z,5.990
2023-01-08T09:32:50.123Z,6.059
2023-01-08T09:33:49.756Z,6.107
2023-01-08T09:34:50.417Z,6.057
2023-01-08T09:35:50.027Z,6.091
2023-01-08T09:36:50.583Z,6.174
2023-01-08T09:37:50.218Z,6.225
2023-01-08T09:38:49.823Z,6.201
2023-01-08T09:39:54.322Z,6.265
2023-01-08T09:41:49.774Z,6.350
2023-01-08T09:42:50.478Z,6.404
2023-01-08T09:43:50.092Z,6.465
2023-01-08T09:44:49.786Z,6.457
2023-01-08T09:45:50.366Z,6.543
2023-01-08T09:46:50.066Z,6.591
2023-01-08T09:47:49.719Z,6.650
2023-01-08T09:48:50.278Z,6.714
2023-01-08T09:49:49.921Z,6.839
2023-01-08T09:50:50.467Z,6.802
2023-01-08T09:51:50.109Z,6.874
2023-01-08T09:52:49.695Z,6.962
2023-01-08T09:53:50.383Z,6.919
2023-01-08T09:54:50.008Z,7.063
2023-01-08T09:55:58.351Z,7.103
2023-01-08T09:57:50.058Z,7.229
2023-01-08T09:58:49.643Z,7.205
2023-01-08T09:59:50.243Z,7.229
2023-01-08T10:00:49.909Z,7.248
2023-01-08T10:01:50.272Z,7.280
2023-01-08T10:02:50.674Z,7.269
2023-01-08T10:03:50.435Z,7.306
2023-01-08T10:04:50.047Z,7.357
2023-01-08T10:05:50.338Z,7.344
2023-01-08T10:06:49.869Z,7.290
2023-01-08T10:07:50.493Z,7.333
2023-01-08T10:08:50.052Z,7.317
2023-01-08T10:09:50.557Z,7.301
2023-01-08T10:10:50.111Z,7.266
2023-01-08T10:11:49.645Z,7.277
2023-01-08T10:12:50.254Z,7.242
2023-01-08T10:13:49.818Z,7.282
2023-01-08T10:14:50.674Z,7.282
2023-01-08T10:15:50.301Z,7.154
2023-01-08T10:16:50.072Z,7.162
2023-01-08T10:17:50.615Z,7.165
2023-01-08T10:18:50.219Z,7.098
2023-01-08T10:19:49.814Z,7.042
2023-01-08T10:20:50.415Z,6.943
2023-01-08T10:21:50.575Z,6.943
2023-01-08T10:22:50.251Z,6.836
2023-01-08T10:23:49.825Z,6.836
2023-01-08T10:24:50.439Z,6.828
2023-01-08T10:25:50.144Z,6.852
2023-01-08T10:26:49.788Z,6.810
2023-01-08T10:27:50.623Z,6.767
2023-01-08T10:28:50.161Z,6.783
2023-01-08T10:29:49.739Z,6.772
2023-01-08T10:30:50.351Z,6.748
2023-01-08T10:31:50.067Z,6.748
2023-01-08T10:32:49.722Z,6.676
2023-01-08T10:33:50.083Z,6.641
2023-01-08T10:34:50.638Z,6.663
2023-01-08T10:35:50.239Z,6.631
2023-01-08T10:36:49.758Z,6.623
2023-01-08T10:37:50.419Z,6.609
2023-01-08T10:38:51.266Z,6.585
2023-01-08T10:39:49.879Z,6.599
2023-01-08T10:40:50.443Z,6.596
2023-01-08T10:41:50.058Z,6.564
2023-01-08T10:42:49.618Z,6.569
2023-01-08T10:43:50.178Z,6.564
2023-01-08T10:44:49.768Z,6.535
2023-01-08T10:45:50.379Z,6.569
2023-01-08T10:46:50.181Z,6.564
2023-01-08T10:47:49.786Z,6.537
2023-01-08T10:48:50.355Z,6.521
2023-01-08T10:49:49.993Z,6.543
2023-01-08T10:50:50.592Z,6.524
2023-01-08T10:51:50.580Z,6.561
2023-01-08T10:52:50.247Z,6.585
2023-01-08T10:53:49.807Z,6.631
2023-01-08T10:54:50.361Z,6.593
2023-01-08T10:55:49.967Z,6.658
2023-01-08T10:56:50.567Z,6.633
2023-01-08T10:57:50.442Z,6.599
2023-01-08T10:58:50.072Z,6.596
2023-01-08T10:59:49.712Z,6.604
2023-01-08T11:00:50.423Z,6.580
2023-01-08T11:01:50.636Z,6.655
2023-01-08T11:02:50.218Z,6.623
2023-01-08T11:03:50.318Z,6.580
2023-01-08T11:04:49.877Z,6.641
2023-01-08T11:05:50.504Z,6.633
2023-01-08T11:06:50.134Z,6.596
2023-01-08T11:07:49.690Z,6.612
2023-01-08T11:08:51.576Z,6.596
2023-01-08T11:09:50.350Z,6.585
2023-01-08T11:10:49.958Z,6.652
2023-01-08T11:11:49.873Z,6.572
2023-01-08T11:12:50.475Z,6.521
2023-01-08T11:13:50.129Z,6.476
2023-01-08T11:14:51.646Z,6.540
2023-01-08T11:15:50.259Z,6.551
2023-01-08T11:16:50.202Z,6.553
2023-01-08T11:17:49.771Z,6.513
2023-01-08T11:18:50.445Z,6.495
2023-01-08T11:19:50.075Z,6.476
2023-01-08T11:20:49.772Z,6.447
2023-01-08T11:21:50.427Z,6.468
2023-01-08T11:22:50.072Z,6.452
2023-01-08T11:23:49.699Z,6.436
2023-01-08T11:24:50.336Z,6.476
2023-01-08T11:25:50.007Z,6.457
2023-01-08T11:26:50.654Z,6.425
2023-01-08T11:27:50.255Z,6.404
2023-01-08T11:28:49.904Z,6.393
2023-01-08T11:29:50.595Z,6.398
2023-01-08T11:30:50.237Z,6.401
2023-01-08T11:31:49.814Z,6.428
2023-01-08T11:32:50.487Z,6.420
2023-01-08T11:33:50.183Z,6.369
2023-01-08T11:34:49.779Z,6.396
2023-01-08T11:35:50.370Z,6.407
2023-01-08T11:36:50.054Z,6.345
2023-01-08T11:38:50.247Z,6.356
2023-01-08T11:39:49.837Z,6.401
2023-01-08T11:40:50.482Z,6.356
2023-01-08T11:41:50.038Z,6.334
2023-01-08T11:42:50.598Z,6.404
2023-01-08T11:43:50.223Z,6.372
2023-01-08T11:44:50.046Z,6.407
2023-01-08T11:45:49.779Z,6.415
2023-01-08T11:46:49.731Z,6.425
2023-01-08T11:47:50.391Z,6.415
2023-01-08T11:48:50.203Z,6.366
2023-01-08T11:49:49.919Z,6.393
2023-01-08T11:50:50.483Z,6.401
2023-01-08T11:51:50.123Z,6.423
2023-01-08T11:52:49.716Z,6.441
2023-01-08T11:53:50.260Z,6.407
2023-01-08T11:54:49.880Z,6.455
2023-01-08T11:55:50.475Z,6.423
2023-01-08T11:56:50.123Z,6.447
2023-01-08T11:57:49.663Z,6.423
2023-01-08T11:58:50.415Z,6.441
2023-01-08T11:59:50.042Z,6.481
2023-01-08T12:00:49.794Z,6.431
2023-01-08T12:01:50.616Z,6.393
2023-01-08T12:02:50.713Z,6.441
2023-01-08T12:03:50.352Z,6.409
2023-01-08T12:04:49.977Z,6.374
2023-01-08T12:05:50.537Z,6.447
2023-01-08T12:06:50.185Z,6.436
2023-01-08T12:07:49.810Z,6.441
2023-01-08T12:08:50.391Z,6.431
2023-01-08T12:09:50.070Z,6.393
2023-01-08T12:10:49.682Z,6.449
2023-01-08T12:11:50.309Z,6.444
2023-01-08T12:12:49.993Z,6.431
2023-01-08T12:13:50.600Z,6.449
2023-01-08T12:14:50.387Z,6.476
2023-01-08T12:15:49.999Z,6.455
2023-01-08T12:16:49.810Z,6.511
2023-01-08T12:17:50.439Z,6.487
2023-01-08T12:18:50.063Z,6.473
2023-01-08T12:19:49.691Z,6.476
2023-01-08T12:20:50.303Z,6.505
2023-01-08T12:21:49.992Z,6.484
2023-01-08T12:22:50.611Z,6.484
2023-01-08T12:23:50.260Z,6.511
2023-01-08T12:24:49.835Z,6.545
2023-01-08T12:25:50.394Z,6.500
2023-01-08T12:26:49.971Z,6.500
2023-01-08T12:27:57.239Z,6.495
2023-01-08T12:28:50.054Z,6.473
2023-01-08T12:29:49.731Z,6.521
2023-01-08T12:30:50.407Z,6.535
2023-01-08T12:32:01.481Z,6.535
2023-01-08T12:33:49.736Z,6.564
2023-01-08T12:34:50.315Z,6.572
2023-01-08T12:35:50.248Z,6.524
2023-01-08T12:36:49.861Z,6.572
2023-01-08T12:37:51.913Z,6.596
2023-01-08T12:38:50.651Z,6.572
2023-01-08T12:39:50.158Z,6.607
2023-01-08T12:40:49.682Z,6.631
2023-01-08T12:41:50.325Z,6.623
2023-01-08T12:42:56.709Z,6.633
2023-01-08T12:45:57.805Z,6.663
2023-01-08T12:46:43.334Z,6.644
2023-01-08T12:47:56.964Z,6.724
2023-01-08T12:48:56.643Z,6.767
2023-01-08T12:49:57.352Z,6.746
2023-01-08T12:50:57.159Z,6.815
2023-01-08T12:51:56.775Z,6.791
2023-01-08T12:52:57.294Z,6.732
2023-01-08T12:53:56.911Z,6.778
2023-01-08T12:54:57.567Z,6.796
2023-01-08T12:55:57.203Z,6.786
2023-01-08T13:04:54.094Z,6.767
2023-01-08T13:05:59.638Z,6.767
2023-01-08T13:07:00.237Z,6.711
2023-01-08T13:07:59.831Z,6.751
2023-01-08T13:09:01.597Z,6.815
2023-01-08T13:10:00.662Z,6.842
2023-01-08T13:10:16.493Z,6.82
2023-01-08T13:11:19.036Z,6.799